sensor_id;sensor_type;location;lat;lon;timestamp;P1;durP1;ratioP1;P2;durP2;ratioP2
55674;SDS011;41562;44.330;23.802;2023-06-26T00:00:39;4.15;;;2.22;;
55674;SDS011;41562;44.330;23.802;2023-06-26T00:03:07;7.70;;;3.08;;
55674;SDS011;41562;44.330;23.802;2023-06-26T00:05:35;14.43;;;2.20;;
55674;SDS011;41562;44.330;23.802;2023-06-26T00:08:02;9.88;;;2.70;;
55674;SDS011;41562;44.330;23.802;2023-06-26T00:10:30;3.88;;;2.67;;
55674;SDS011;41562;44.330;23.802;2023-06-26T00:12:57;3.90;;;1.95;;
55674;SDS011;41562;44.330;23.802;2023-06-26T00:15:24;5.95;;;2.72;;
55674;SDS011;41562;44.330;23.802;2023-06-26T00:17:51;8.02;;;3.00;;
55674;SDS011;41562;44.330;23.802;2023-06-26T00:20:19;5.38;;;2.67;;
55674;SDS011;41562;44.330;23.802;2023-06-26T00:22:46;8.82;;;2.42;;
55674;SDS011;41562;44.330;23.802;2023-06-26T00:25:13;6.00;;;2.85;;
55674;SDS011;41562;44.330;23.802;2023-06-26T00:27:41;6.03;;;2.67;;
55674;SDS011;41562;44.330;23.802;2023-06-26T00:30:08;4.93;;;2.72;;
55674;SDS011;41562;44.330;23.802;2023-06-26T00:32:36;3.50;;;2.35;;
55674;SDS011;41562;44.330;23.802;2023-06-26T00:35:05;9.07;;;2.50;;
55674;SDS011;41562;44.330;23.802;2023-06-26T00:37:32;2.97;;;1.67;;
55674;SDS011;41562;44.330;23.802;2023-06-26T00:39:59;2.72;;;1.77;;
55674;SDS011;41562;44.330;23.802;2023-06-26T00:42:27;4.32;;;2.58;;
55674;SDS011;41562;44.330;23.802;2023-06-26T00:44:54;5.65;;;2.55;;
55674;SDS011;41562;44.330;23.802;2023-06-26T00:47:21;4.22;;;2.30;;
55674;SDS011;41562;44.330;23.802;2023-06-26T00:49:48;3.67;;;2.13;;
55674;SDS011;41562;44.330;23.802;2023-06-26T00:52:16;5.47;;;2.40;;
55674;SDS011;41562;44.330;23.802;2023-06-26T00:54:43;5.38;;;2.88;;
55674;SDS011;41562;44.330;23.802;2023-06-26T00:57:11;5.28;;;2.47;;
55674;SDS011;41562;44.330;23.802;2023-06-26T00:59:39;5.43;;;2.03;;
55674;SDS011;41562;44.330;23.802;2023-06-26T01:02:06;13.18;;;2.85;;
55674;SDS011;41562;44.330;23.802;2023-06-26T01:04:33;6.18;;;1.70;;
55674;SDS011;41562;44.330;23.802;2023-06-26T01:07:01;8.27;;;3.30;;
55674;SDS011;41562;44.330;23.802;2023-06-26T01:09:30;8.60;;;3.63;;
55674;SDS011;41562;44.330;23.802;2023-06-26T01:11:58;6.82;;;3.40;;
55674;SDS011;41562;44.330;23.802;2023-06-26T01:14:28;6.50;;;3.08;;
55674;SDS011;41562;44.330;23.802;2023-06-26T01:16:56;11.23;;;3.95;;
55674;SDS011;41562;44.330;23.802;2023-06-26T01:19:24;4.18;;;2.65;;
55674;SDS011;41562;44.330;23.802;2023-06-26T01:22:02;6.30;;;2.70;;
55674;SDS011;41562;44.330;23.802;2023-06-26T01:27:48;7.35;;;2.83;;
55674;SDS011;41562;44.330;23.802;2023-06-26T01:30:17;17.33;;;3.05;;
55674;SDS011;41562;44.330;23.802;2023-06-26T01:32:45;6.38;;;2.53;;
55674;SDS011;41562;44.330;23.802;2023-06-26T01:35:13;12.90;;;3.53;;
55674;SDS011;41562;44.330;23.802;2023-06-26T01:37:42;11.35;;;3.25;;
55674;SDS011;41562;44.330;23.802;2023-06-26T01:40:09;7.10;;;2.95;;
55674;SDS011;41562;44.330;23.802;2023-06-26T01:42:38;7.65;;;2.72;;
55674;SDS011;41562;44.330;23.802;2023-06-26T01:45:15;5.53;;;3.35;;
55674;SDS011;41562;44.330;23.802;2023-06-26T01:47:50;6.90;;;3.42;;
55674;SDS011;41562;44.330;23.802;2023-06-26T01:50:22;7.47;;;3.60;;
55674;SDS011;41562;44.330;23.802;2023-06-26T01:53:00;6.57;;;2.92;;
55674;SDS011;41562;44.330;23.802;2023-06-26T01:55:32;6.50;;;2.30;;
55674;SDS011;41562;44.330;23.802;2023-06-26T01:58:04;8.82;;;2.90;;
55674;SDS011;41562;44.330;23.802;2023-06-26T02:00:33;6.10;;;2.42;;
55674;SDS011;41562;44.330;23.802;2023-06-26T02:03:03;5.90;;;2.67;;
55674;SDS011;41562;44.330;23.802;2023-06-26T02:05:30;7.45;;;3.08;;
55674;SDS011;41562;44.330;23.802;2023-06-26T02:07:58;4.88;;;3.10;;
55674;SDS011;41562;44.330;23.802;2023-06-26T02:10:25;11.02;;;3.65;;
55674;SDS011;41562;44.330;23.802;2023-06-26T02:12:52;7.32;;;3.03;;
55674;SDS011;41562;44.330;23.802;2023-06-26T02:15:20;10.13;;;3.05;;
55674;SDS011;41562;44.330;23.802;2023-06-26T02:17:47;7.40;;;3.53;;
55674;SDS011;41562;44.330;23.802;2023-06-26T02:20:14;7.07;;;3.35;;
55674;SDS011;41562;44.330;23.802;2023-06-26T02:22:42;8.60;;;5.15;;
55674;SDS011;41562;44.330;23.802;2023-06-26T02:25:09;5.22;;;2.97;;
55674;SDS011;41562;44.330;23.802;2023-06-26T02:27:37;6.50;;;3.22;;
55674;SDS011;41562;44.330;23.802;2023-06-26T02:30:05;12.90;;;4.13;;
55674;SDS011;41562;44.330;23.802;2023-06-26T02:32:35;7.70;;;3.28;;
55674;SDS011;41562;44.330;23.802;2023-06-26T02:35:02;9.57;;;2.53;;
55674;SDS011;41562;44.330;23.802;2023-06-26T02:37:30;4.63;;;2.45;;
55674;SDS011;41562;44.330;23.802;2023-06-26T02:39:58;6.50;;;2.70;;
55674;SDS011;41562;44.330;23.802;2023-06-26T02:42:25;13.55;;;2.85;;
55674;SDS011;41562;44.330;23.802;2023-06-26T02:44:52;6.70;;;2.95;;
55674;SDS011;41562;44.330;23.802;2023-06-26T02:47:20;9.23;;;3.33;;
55674;SDS011;41562;44.330;23.802;2023-06-26T02:49:47;5.78;;;2.88;;
55674;SDS011;41562;44.330;23.802;2023-06-26T02:52:14;5.55;;;3.53;;
55674;SDS011;41562;44.330;23.802;2023-06-26T02:54:42;5.45;;;2.88;;
55674;SDS011;41562;44.330;23.802;2023-06-26T02:57:09;7.72;;;2.25;;
55674;SDS011;41562;44.330;23.802;2023-06-26T02:59:36;14.77;;;3.67;;
55674;SDS011;41562;44.330;23.802;2023-06-26T03:02:04;6.47;;;2.55;;
55674;SDS011;41562;44.330;23.802;2023-06-26T03:04:31;5.05;;;2.20;;
55674;SDS011;41562;44.330;23.802;2023-06-26T03:06:58;7.82;;;2.55;;
55674;SDS011;41562;44.330;23.802;2023-06-26T03:09:26;5.75;;;2.67;;
55674;SDS011;41562;44.330;23.802;2023-06-26T03:11:53;4.00;;;2.00;;
55674;SDS011;41562;44.330;23.802;2023-06-26T03:14:21;6.80;;;2.17;;
55674;SDS011;41562;44.330;23.802;2023-06-26T03:16:48;3.35;;;1.77;;
55674;SDS011;41562;44.330;23.802;2023-06-26T03:19:16;4.95;;;2.72;;
55674;SDS011;41562;44.330;23.802;2023-06-26T03:21:44;7.07;;;2.67;;
55674;SDS011;41562;44.330;23.802;2023-06-26T03:24:11;5.72;;;2.63;;
55674;SDS011;41562;44.330;23.802;2023-06-26T03:26:39;6.50;;;2.65;;
55674;SDS011;41562;44.330;23.802;2023-06-26T03:29:06;7.22;;;2.78;;
55674;SDS011;41562;44.330;23.802;2023-06-26T03:31:33;9.05;;;2.95;;
55674;SDS011;41562;44.330;23.802;2023-06-26T03:34:00;5.35;;;2.45;;
55674;SDS011;41562;44.330;23.802;2023-06-26T03:36:28;5.03;;;2.13;;
55674;SDS011;41562;44.330;23.802;2023-06-26T03:38:55;7.28;;;2.97;;
55674;SDS011;41562;44.330;23.802;2023-06-26T03:41:22;6.63;;;2.70;;
55674;SDS011;41562;44.330;23.802;2023-06-26T03:43:51;6.57;;;2.67;;
55674;SDS011;41562;44.330;23.802;2023-06-26T03:46:18;5.38;;;2.92;;
55674;SDS011;41562;44.330;23.802;2023-06-26T03:48:45;3.03;;;1.92;;
55674;SDS011;41562;44.330;23.802;2023-06-26T03:51:12;13.48;;;4.35;;
55674;SDS011;41562;44.330;23.802;2023-06-26T03:53:40;4.32;;;2.50;;
55674;SDS011;41562;44.330;23.802;2023-06-26T03:56:08;3.78;;;2.28;;
55674;SDS011;41562;44.330;23.802;2023-06-26T03:58:35;5.43;;;2.63;;
55674;SDS011;41562;44.330;23.802;2023-06-26T04:01:04;4.85;;;2.55;;
55674;SDS011;41562;44.330;23.802;2023-06-26T04:06:03;4.63;;;2.63;;
55674;SDS011;41562;44.330;23.802;2023-06-26T04:08:31;11.30;;;3.17;;
55674;SDS011;41562;44.330;23.802;2023-06-26T04:10:58;4.13;;;1.70;;
55674;SDS011;41562;44.330;23.802;2023-06-26T04:13:27;7.28;;;2.80;;
55674;SDS011;41562;44.330;23.802;2023-06-26T04:15:57;3.40;;;2.30;;
55674;SDS011;41562;44.330;23.802;2023-06-26T04:18:24;4.68;;;1.65;;
55674;SDS011;41562;44.330;23.802;2023-06-26T04:21:07;6.22;;;2.17;;
55674;SDS011;41562;44.330;23.802;2023-06-26T04:23:40;4.00;;;2.30;;
55674;SDS011;41562;44.330;23.802;2023-06-26T04:26:07;12.05;;;2.97;;
55674;SDS011;41562;44.330;23.802;2023-06-26T04:28:35;5.93;;;3.42;;
55674;SDS011;41562;44.330;23.802;2023-06-26T04:31:02;6.35;;;3.17;;
55674;SDS011;41562;44.330;23.802;2023-06-26T04:33:30;4.55;;;2.17;;
55674;SDS011;41562;44.330;23.802;2023-06-26T04:35:58;7.57;;;2.35;;
55674;SDS011;41562;44.330;23.802;2023-06-26T04:38:25;5.05;;;2.45;;
55674;SDS011;41562;44.330;23.802;2023-06-26T04:40:52;3.53;;;2.33;;
55674;SDS011;41562;44.330;23.802;2023-06-26T04:43:22;5.80;;;2.65;;
55674;SDS011;41562;44.330;23.802;2023-06-26T04:45:49;4.72;;;1.98;;
55674;SDS011;41562;44.330;23.802;2023-06-26T04:48:17;7.57;;;3.03;;
55674;SDS011;41562;44.330;23.802;2023-06-26T04:50:44;4.32;;;1.85;;
55674;SDS011;41562;44.330;23.802;2023-06-26T04:53:12;5.22;;;2.42;;
55674;SDS011;41562;44.330;23.802;2023-06-26T04:55:39;3.63;;;2.00;;
55674;SDS011;41562;44.330;23.802;2023-06-26T04:58:06;4.38;;;2.17;;
55674;SDS011;41562;44.330;23.802;2023-06-26T05:00:34;3.40;;;2.20;;
55674;SDS011;41562;44.330;23.802;2023-06-26T05:03:02;5.97;;;1.90;;
55674;SDS011;41562;44.330;23.802;2023-06-26T05:05:31;3.75;;;1.98;;
55674;SDS011;41562;44.330;23.802;2023-06-26T05:07:59;4.15;;;2.40;;
55674;SDS011;41562;44.330;23.802;2023-06-26T05:10:44;3.85;;;1.92;;
55674;SDS011;41562;44.330;23.802;2023-06-26T05:13:22;4.38;;;2.35;;
55674;SDS011;41562;44.330;23.802;2023-06-26T05:16:00;7.22;;;2.35;;
55674;SDS011;41562;44.330;23.802;2023-06-26T05:18:28;6.68;;;2.00;;
55674;SDS011;41562;44.330;23.802;2023-06-26T05:20:55;3.92;;;1.98;;
55674;SDS011;41562;44.330;23.802;2023-06-26T05:23:22;3.85;;;2.05;;
55674;SDS011;41562;44.330;23.802;2023-06-26T05:25:53;4.25;;;1.85;;
55674;SDS011;41562;44.330;23.802;2023-06-26T05:28:20;3.92;;;1.92;;
55674;SDS011;41562;44.330;23.802;2023-06-26T05:30:48;4.13;;;1.98;;
55674;SDS011;41562;44.330;23.802;2023-06-26T05:33:15;3.67;;;1.55;;
55674;SDS011;41562;44.330;23.802;2023-06-26T05:35:45;6.13;;;2.50;;
55674;SDS011;41562;44.330;23.802;2023-06-26T05:38:13;5.07;;;2.15;;
55674;SDS011;41562;44.330;23.802;2023-06-26T05:40:40;3.10;;;2.03;;
55674;SDS011;41562;44.330;23.802;2023-06-26T05:43:08;2.92;;;2.00;;
55674;SDS011;41562;44.330;23.802;2023-06-26T05:45:35;6.78;;;1.80;;
55674;SDS011;41562;44.330;23.802;2023-06-26T05:48:02;4.97;;;2.50;;
55674;SDS011;41562;44.330;23.802;2023-06-26T05:50:31;9.73;;;2.17;;
55674;SDS011;41562;44.330;23.802;2023-06-26T05:52:59;3.58;;;2.28;;
55674;SDS011;41562;44.330;23.802;2023-06-26T05:55:26;5.38;;;1.83;;
55674;SDS011;41562;44.330;23.802;2023-06-26T05:57:54;6.15;;;1.85;;
55674;SDS011;41562;44.330;23.802;2023-06-26T06:02:52;4.03;;;2.28;;
55674;SDS011;41562;44.330;23.802;2023-06-26T06:05:20;5.72;;;2.25;;
55674;SDS011;41562;44.330;23.802;2023-06-26T06:07:48;3.75;;;2.53;;
55674;SDS011;41562;44.330;23.802;2023-06-26T06:10:16;9.23;;;1.83;;
55674;SDS011;41562;44.330;23.802;2023-06-26T06:12:44;6.90;;;2.35;;
55674;SDS011;41562;44.330;23.802;2023-06-26T06:15:11;6.63;;;1.58;;
55674;SDS011;41562;44.330;23.802;2023-06-26T06:17:38;4.50;;;2.00;;
55674;SDS011;41562;44.330;23.802;2023-06-26T06:20:06;2.72;;;1.95;;
55674;SDS011;41562;44.330;23.802;2023-06-26T06:22:33;4.80;;;2.30;;
55674;SDS011;41562;44.330;23.802;2023-06-26T06:25:00;3.22;;;1.80;;
55674;SDS011;41562;44.330;23.802;2023-06-26T06:27:28;4.75;;;2.33;;
55674;SDS011;41562;44.330;23.802;2023-06-26T06:29:55;5.32;;;1.92;;
55674;SDS011;41562;44.330;23.802;2023-06-26T06:32:22;2.67;;;1.77;;
55674;SDS011;41562;44.330;23.802;2023-06-26T06:34:50;2.30;;;1.65;;
55674;SDS011;41562;44.330;23.802;2023-06-26T06:37:18;4.32;;;1.85;;
55674;SDS011;41562;44.330;23.802;2023-06-26T06:39:45;4.07;;;1.90;;
55674;SDS011;41562;44.330;23.802;2023-06-26T06:42:12;3.60;;;1.58;;
55674;SDS011;41562;44.330;23.802;2023-06-26T06:44:39;3.30;;;1.95;;
55674;SDS011;41562;44.330;23.802;2023-06-26T06:47:07;8.25;;;2.75;;
55674;SDS011;41562;44.330;23.802;2023-06-26T06:49:34;5.18;;;2.83;;
55674;SDS011;41562;44.330;23.802;2023-06-26T06:52:02;7.13;;;2.70;;
55674;SDS011;41562;44.330;23.802;2023-06-26T06:54:29;5.32;;;3.15;;
55674;SDS011;41562;44.330;23.802;2023-06-26T06:56:57;5.15;;;2.80;;
55674;SDS011;41562;44.330;23.802;2023-06-26T06:59:24;7.05;;;3.38;;
55674;SDS011;41562;44.330;23.802;2023-06-26T07:01:51;6.65;;;2.30;;
55674;SDS011;41562;44.330;23.802;2023-06-26T07:04:18;6.63;;;2.85;;
55674;SDS011;41562;44.330;23.802;2023-06-26T07:06:46;5.93;;;2.78;;
55674;SDS011;41562;44.330;23.802;2023-06-26T07:09:13;4.78;;;2.63;;
55674;SDS011;41562;44.330;23.802;2023-06-26T07:11:41;5.45;;;2.92;;
55674;SDS011;41562;44.330;23.802;2023-06-26T07:14:08;4.60;;;3.05;;
55674;SDS011;41562;44.330;23.802;2023-06-26T07:16:35;5.15;;;2.47;;
55674;SDS011;41562;44.330;23.802;2023-06-26T07:19:03;6.65;;;3.47;;
55674;SDS011;41562;44.330;23.802;2023-06-26T07:21:30;7.32;;;2.50;;
55674;SDS011;41562;44.330;23.802;2023-06-26T07:23:57;6.00;;;3.00;;
55674;SDS011;41562;44.330;23.802;2023-06-26T07:26:25;6.47;;;2.75;;
55674;SDS011;41562;44.330;23.802;2023-06-26T07:29:10;4.20;;;2.42;;
55674;SDS011;41562;44.330;23.802;2023-06-26T07:31:37;5.93;;;3.13;;
55674;SDS011;41562;44.330;23.802;2023-06-26T07:34:04;8.75;;;2.38;;
55674;SDS011;41562;44.330;23.802;2023-06-26T07:36:31;5.47;;;2.42;;
55674;SDS011;41562;44.330;23.802;2023-06-26T07:38:59;4.72;;;2.63;;
55674;SDS011;41562;44.330;23.802;2023-06-26T07:41:26;5.45;;;2.78;;
55674;SDS011;41562;44.330;23.802;2023-06-26T07:43:54;6.97;;;3.05;;
55674;SDS011;41562;44.330;23.802;2023-06-26T07:46:22;5.68;;;3.42;;
55674;SDS011;41562;44.330;23.802;2023-06-26T07:48:49;5.97;;;2.92;;
55674;SDS011;41562;44.330;23.802;2023-06-26T07:51:16;5.50;;;2.10;;
55674;SDS011;41562;44.330;23.802;2023-06-26T07:53:43;8.50;;;2.63;;
55674;SDS011;41562;44.330;23.802;2023-06-26T07:56:11;7.45;;;2.88;;
55674;SDS011;41562;44.330;23.802;2023-06-26T07:58:38;4.80;;;2.40;;
55674;SDS011;41562;44.330;23.802;2023-06-26T08:01:05;5.93;;;2.58;;
55674;SDS011;41562;44.330;23.802;2023-06-26T08:03:33;4.47;;;2.45;;
55674;SDS011;41562;44.330;23.802;2023-06-26T08:06:02;8.27;;;3.78;;
55674;SDS011;41562;44.330;23.802;2023-06-26T08:08:30;9.00;;;2.90;;
55674;SDS011;41562;44.330;23.802;2023-06-26T08:10:57;9.23;;;3.63;;
55674;SDS011;41562;44.330;23.802;2023-06-26T08:13:24;3.97;;;2.30;;
55674;SDS011;41562;44.330;23.802;2023-06-26T08:18:22;3.97;;;2.63;;
55674;SDS011;41562;44.330;23.802;2023-06-26T08:20:50;6.63;;;2.88;;
55674;SDS011;41562;44.330;23.802;2023-06-26T08:23:22;6.07;;;3.55;;
55674;SDS011;41562;44.330;23.802;2023-06-26T08:25:53;7.88;;;2.58;;
55674;SDS011;41562;44.330;23.802;2023-06-26T08:28:40;4.68;;;2.30;;
55674;SDS011;41562;44.330;23.802;2023-06-26T08:31:08;7.07;;;3.17;;
55674;SDS011;41562;44.330;23.802;2023-06-26T08:33:35;3.20;;;1.88;;
55674;SDS011;41562;44.330;23.802;2023-06-26T08:36:02;4.75;;;2.60;;
55674;SDS011;41562;44.330;23.802;2023-06-26T08:38:30;4.03;;;2.42;;
55674;SDS011;41562;44.330;23.802;2023-06-26T08:40:57;6.20;;;2.75;;
55674;SDS011;41562;44.330;23.802;2023-06-26T08:43:25;4.88;;;2.38;;
55674;SDS011;41562;44.330;23.802;2023-06-26T08:45:53;4.35;;;2.33;;
55674;SDS011;41562;44.330;23.802;2023-06-26T08:48:20;5.63;;;2.60;;
55674;SDS011;41562;44.330;23.802;2023-06-26T08:50:48;5.28;;;2.05;;
55674;SDS011;41562;44.330;23.802;2023-06-26T08:56:19;6.13;;;2.42;;
55674;SDS011;41562;44.330;23.802;2023-06-26T08:58:57;5.75;;;2.63;;
55674;SDS011;41562;44.330;23.802;2023-06-26T09:04:01;4.75;;;2.72;;
55674;SDS011;41562;44.330;23.802;2023-06-26T09:06:30;4.63;;;3.05;;
55674;SDS011;41562;44.330;23.802;2023-06-26T09:09:00;4.15;;;2.45;;
55674;SDS011;41562;44.330;23.802;2023-06-26T09:11:28;5.72;;;2.22;;
55674;SDS011;41562;44.330;23.802;2023-06-26T09:13:56;8.38;;;2.45;;
55674;SDS011;41562;44.330;23.802;2023-06-26T09:16:24;7.43;;;3.30;;
55674;SDS011;41562;44.330;23.802;2023-06-26T09:18:53;5.03;;;3.10;;
55674;SDS011;41562;44.330;23.802;2023-06-26T09:21:21;4.20;;;2.15;;
55674;SDS011;41562;44.330;23.802;2023-06-26T09:23:49;4.45;;;2.50;;
55674;SDS011;41562;44.330;23.802;2023-06-26T09:26:16;3.75;;;2.33;;
55674;SDS011;41562;44.330;23.802;2023-06-26T09:28:44;3.75;;;2.60;;
55674;SDS011;41562;44.330;23.802;2023-06-26T09:31:12;8.10;;;3.60;;
55674;SDS011;41562;44.330;23.802;2023-06-26T09:33:50;4.63;;;2.92;;
55674;SDS011;41562;44.330;23.802;2023-06-26T09:36:27;4.68;;;2.63;;
55674;SDS011;41562;44.330;23.802;2023-06-26T09:38:55;4.40;;;2.72;;
55674;SDS011;41562;44.330;23.802;2023-06-26T09:41:22;5.57;;;2.10;;
55674;SDS011;41562;44.330;23.802;2023-06-26T09:43:50;9.55;;;3.42;;
55674;SDS011;41562;44.330;23.802;2023-06-26T09:46:27;6.38;;;2.85;;
55674;SDS011;41562;44.330;23.802;2023-06-26T09:49:03;7.60;;;3.03;;
55674;SDS011;41562;44.330;23.802;2023-06-26T09:51:33;2.88;;;2.55;;
55674;SDS011;41562;44.330;23.802;2023-06-26T09:54:02;6.25;;;2.53;;
55674;SDS011;41562;44.330;23.802;2023-06-26T09:56:31;4.22;;;3.00;;
55674;SDS011;41562;44.330;23.802;2023-06-26T09:59:00;6.03;;;3.17;;
55674;SDS011;41562;44.330;23.802;2023-06-26T10:01:32;3.17;;;2.15;;
55674;SDS011;41562;44.330;23.802;2023-06-26T10:04:11;3.93;;;2.43;;
55674;SDS011;41562;44.330;23.802;2023-06-26T10:06:41;3.95;;;2.22;;
55674;SDS011;41562;44.330;23.802;2023-06-26T10:09:13;6.40;;;3.00;;
55674;SDS011;41562;44.330;23.802;2023-06-26T10:11:47;6.32;;;2.47;;
55674;SDS011;41562;44.330;23.802;2023-06-26T10:14:21;4.50;;;2.78;;
55674;SDS011;41562;44.330;23.802;2023-06-26T10:16:49;2.90;;;1.98;;
55674;SDS011;41562;44.330;23.802;2023-06-26T10:19:18;4.80;;;2.92;;
55674;SDS011;41562;44.330;23.802;2023-06-26T10:21:50;3.85;;;2.42;;
55674;SDS011;41562;44.330;23.802;2023-06-26T10:24:22;2.90;;;2.35;;
55674;SDS011;41562;44.330;23.802;2023-06-26T10:26:52;6.32;;;2.63;;
55674;SDS011;41562;44.330;23.802;2023-06-26T10:29:26;3.97;;;2.75;;
55674;SDS011;41562;44.330;23.802;2023-06-26T10:31:56;4.43;;;2.70;;
55674;SDS011;41562;44.330;23.802;2023-06-26T10:34:27;4.93;;;2.67;;
55674;SDS011;41562;44.330;23.802;2023-06-26T10:36:59;4.47;;;2.30;;
55674;SDS011;41562;44.330;23.802;2023-06-26T10:39:27;4.40;;;2.47;;
55674;SDS011;41562;44.330;23.802;2023-06-26T10:42:28;5.63;;;3.00;;
55674;SDS011;41562;44.330;23.802;2023-06-26T10:45:14;5.25;;;2.90;;
55674;SDS011;41562;44.330;23.802;2023-06-26T10:47:47;7.72;;;3.05;;
55674;SDS011;41562;44.330;23.802;2023-06-26T10:53:13;5.50;;;3.53;;
55674;SDS011;41562;44.330;23.802;2023-06-26T10:55:50;7.03;;;4.28;;
55674;SDS011;41562;44.330;23.802;2023-06-26T11:01:23;5.20;;;3.60;;
55674;SDS011;41562;44.330;23.802;2023-06-26T11:06:26;7.00;;;4.40;;
55674;SDS011;41562;44.330;23.802;2023-06-26T11:08:54;6.05;;;4.07;;
55674;SDS011;41562;44.330;23.802;2023-06-26T11:14:20;5.72;;;3.65;;
55674;SDS011;41562;44.330;23.802;2023-06-26T11:16:48;6.43;;;4.07;;
55674;SDS011;41562;44.330;23.802;2023-06-26T11:19:16;5.40;;;3.00;;
55674;SDS011;41562;44.330;23.802;2023-06-26T11:21:45;4.82;;;3.50;;
55674;SDS011;41562;44.330;23.802;2023-06-26T11:24:13;3.92;;;2.75;;
55674;SDS011;41562;44.330;23.802;2023-06-26T11:26:41;4.82;;;2.83;;
55674;SDS011;41562;44.330;23.802;2023-06-26T11:29:10;2.97;;;2.30;;
55674;SDS011;41562;44.330;23.802;2023-06-26T11:31:39;3.65;;;2.78;;
55674;SDS011;41562;44.330;23.802;2023-06-26T11:34:09;3.35;;;2.67;;
55674;SDS011;41562;44.330;23.802;2023-06-26T11:36:41;3.08;;;2.28;;
55674;SDS011;41562;44.330;23.802;2023-06-26T11:39:12;5.30;;;2.53;;
55674;SDS011;41562;44.330;23.802;2023-06-26T11:41:40;4.28;;;2.92;;
55674;SDS011;41562;44.330;23.802;2023-06-26T11:44:08;4.15;;;2.30;;
55674;SDS011;41562;44.330;23.802;2023-06-26T11:46:37;4.65;;;2.42;;
55674;SDS011;41562;44.330;23.802;2023-06-26T11:49:06;3.92;;;2.15;;
55674;SDS011;41562;44.330;23.802;2023-06-26T11:51:34;4.30;;;2.50;;
55674;SDS011;41562;44.330;23.802;2023-06-26T11:54:03;5.68;;;2.88;;
55674;SDS011;41562;44.330;23.802;2023-06-26T11:56:31;3.10;;;2.28;;
55674;SDS011;41562;44.330;23.802;2023-06-26T12:04:04;2.40;;;1.65;;
55674;SDS011;41562;44.330;23.802;2023-06-26T12:06:39;1.98;;;1.40;;
55674;SDS011;41562;44.330;23.802;2023-06-26T12:09:11;2.47;;;1.30;;
55674;SDS011;41562;44.330;23.802;2023-06-26T12:11:46;3.35;;;1.83;;
55674;SDS011;41562;44.330;23.802;2023-06-26T12:14:15;2.70;;;1.85;;
55674;SDS011;41562;44.330;23.802;2023-06-26T12:16:49;2.85;;;1.75;;
55674;SDS011;41562;44.330;23.802;2023-06-26T12:19:24;5.15;;;1.77;;
55674;SDS011;41562;44.330;23.802;2023-06-26T12:21:54;5.15;;;2.33;;
55674;SDS011;41562;44.330;23.802;2023-06-26T12:24:22;4.90;;;2.60;;
55674;SDS011;41562;44.330;23.802;2023-06-26T12:26:54;5.10;;;2.08;;
55674;SDS011;41562;44.330;23.802;2023-06-26T12:29:28;4.13;;;1.90;;
55674;SDS011;41562;44.330;23.802;2023-06-26T12:31:59;2.78;;;1.70;;
55674;SDS011;41562;44.330;23.802;2023-06-26T12:34:36;3.40;;;2.08;;
55674;SDS011;41562;44.330;23.802;2023-06-26T12:37:10;5.25;;;2.50;;
55674;SDS011;41562;44.330;23.802;2023-06-26T12:42:22;5.80;;;2.28;;
55674;SDS011;41562;44.330;23.802;2023-06-26T12:44:51;3.20;;;1.85;;
55674;SDS011;41562;44.330;23.802;2023-06-26T12:47:23;3.67;;;2.05;;
55674;SDS011;41562;44.330;23.802;2023-06-26T12:49:53;3.83;;;2.10;;
55674;SDS011;41562;44.330;23.802;2023-06-26T12:52:21;3.72;;;1.40;;
55674;SDS011;41562;44.330;23.802;2023-06-26T12:54:52;4.30;;;1.67;;
55674;SDS011;41562;44.330;23.802;2023-06-26T12:57:21;2.28;;;1.50;;
55674;SDS011;41562;44.330;23.802;2023-06-26T12:59:48;3.22;;;1.80;;
55674;SDS011;41562;44.330;23.802;2023-06-26T13:02:16;3.67;;;1.75;;
55674;SDS011;41562;44.330;23.802;2023-06-26T13:04:44;4.00;;;1.92;;
55674;SDS011;41562;44.330;23.802;2023-06-26T13:07:15;3.97;;;1.80;;
55674;SDS011;41562;44.330;23.802;2023-06-26T13:09:46;2.72;;;1.48;;
55674;SDS011;41562;44.330;23.802;2023-06-26T13:12:14;2.53;;;1.60;;
55674;SDS011;41562;44.330;23.802;2023-06-26T13:14:41;2.97;;;1.67;;
55674;SDS011;41562;44.330;23.802;2023-06-26T13:17:10;3.25;;;1.50;;
55674;SDS011;41562;44.330;23.802;2023-06-26T13:19:39;2.80;;;1.25;;
55674;SDS011;41562;44.330;23.802;2023-06-26T13:22:07;2.15;;;0.88;;
55674;SDS011;41562;44.330;23.802;2023-06-26T13:24:34;1.88;;;1.25;;
55674;SDS011;41562;44.330;23.802;2023-06-26T13:27:02;2.45;;;1.20;;
55674;SDS011;41562;44.330;23.802;2023-06-26T13:29:31;3.90;;;1.27;;
55674;SDS011;41562;44.330;23.802;2023-06-26T13:31:58;3.80;;;1.65;;
55674;SDS011;41562;44.330;23.802;2023-06-26T13:34:27;1.88;;;1.10;;
55674;SDS011;41562;44.330;23.802;2023-06-26T13:36:55;1.40;;;1.20;;
55674;SDS011;41562;44.330;23.802;2023-06-26T13:39:23;1.05;;;0.90;;
55674;SDS011;41562;44.330;23.802;2023-06-26T13:41:51;1.98;;;1.02;;
55674;SDS011;41562;44.330;23.802;2023-06-26T13:44:18;1.15;;;1.02;;
55674;SDS011;41562;44.330;23.802;2023-06-26T13:47:06;3.25;;;1.10;;
55674;SDS011;41562;44.330;23.802;2023-06-26T13:49:36;4.10;;;1.20;;
55674;SDS011;41562;44.330;23.802;2023-06-26T13:52:04;1.85;;;1.15;;
55674;SDS011;41562;44.330;23.802;2023-06-26T13:54:31;2.33;;;0.80;;
55674;SDS011;41562;44.330;23.802;2023-06-26T13:56:59;2.13;;;1.23;;
55674;SDS011;41562;44.330;23.802;2023-06-26T13:59:26;1.15;;;0.80;;
55674;SDS011;41562;44.330;23.802;2023-06-26T14:01:55;1.67;;;1.02;;
55674;SDS011;41562;44.330;23.802;2023-06-26T14:04:22;1.02;;;0.70;;
55674;SDS011;41562;44.330;23.802;2023-06-26T14:06:50;1.08;;;0.95;;
55674;SDS011;41562;44.330;23.802;2023-06-26T14:09:17;1.10;;;0.57;;
55674;SDS011;41562;44.330;23.802;2023-06-26T14:11:45;2.15;;;1.10;;
55674;SDS011;41562;44.330;23.802;2023-06-26T14:14:13;3.35;;;0.80;;
55674;SDS011;41562;44.330;23.802;2023-06-26T14:16:40;0.60;;;0.57;;
55674;SDS011;41562;44.330;23.802;2023-06-26T14:19:08;1.13;;;0.68;;
55674;SDS011;41562;44.330;23.802;2023-06-26T14:21:37;0.90;;;0.68;;
55674;SDS011;41562;44.330;23.802;2023-06-26T14:24:05;1.75;;;0.70;;
55674;SDS011;41562;44.330;23.802;2023-06-26T14:26:32;2.45;;;0.95;;
55674;SDS011;41562;44.330;23.802;2023-06-26T14:29:00;1.35;;;0.77;;
55674;SDS011;41562;44.330;23.802;2023-06-26T14:31:28;0.70;;;0.50;;
55674;SDS011;41562;44.330;23.802;2023-06-26T14:33:55;2.60;;;0.60;;
55674;SDS011;41562;44.330;23.802;2023-06-26T14:36:23;0.65;;;0.52;;
55674;SDS011;41562;44.330;23.802;2023-06-26T14:38:51;1.55;;;0.80;;
55674;SDS011;41562;44.330;23.802;2023-06-26T14:41:18;0.85;;;0.73;;
55674;SDS011;41562;44.330;23.802;2023-06-26T14:43:47;1.67;;;0.52;;
55674;SDS011;41562;44.330;23.802;2023-06-26T14:46:15;1.88;;;0.70;;
55674;SDS011;41562;44.330;23.802;2023-06-26T14:48:43;1.23;;;0.57;;
55674;SDS011;41562;44.330;23.802;2023-06-26T14:51:10;0.70;;;0.50;;
55674;SDS011;41562;44.330;23.802;2023-06-26T14:53:38;1.48;;;0.55;;
55674;SDS011;41562;44.330;23.802;2023-06-26T14:56:05;1.38;;;0.90;;
55674;SDS011;41562;44.330;23.802;2023-06-26T14:58:33;1.63;;;1.00;;
55674;SDS011;41562;44.330;23.802;2023-06-26T15:01:04;1.85;;;0.95;;
55674;SDS011;41562;44.330;23.802;2023-06-26T15:06:27;0.93;;;0.75;;
55674;SDS011;41562;44.330;23.802;2023-06-26T15:08:55;1.15;;;0.80;;
55674;SDS011;41562;44.330;23.802;2023-06-26T15:11:22;2.08;;;0.60;;
55674;SDS011;41562;44.330;23.802;2023-06-26T15:13:50;2.85;;;1.15;;
55674;SDS011;41562;44.330;23.802;2023-06-26T15:16:18;2.97;;;1.38;;
55674;SDS011;41562;44.330;23.802;2023-06-26T15:18:48;1.20;;;0.80;;
55674;SDS011;41562;44.330;23.802;2023-06-26T15:21:15;1.50;;;1.08;;